Time;durP1;ratioP1;P1;durP2;ratioP2;P2;SDS_P1;SDS_P2;PMS_P1;PMS_P2;Temp;Humidity;BMP_temperature;BMP_pressure;BME280_temperature;BME280_humidity;BME280_pressure;Samples;Min_cycle;Max_cycle;Signal;HPM_P1;HPM_P2
2023/09/21 00:00:16;;;;;;;;;4.00;1.33;;;;;28.25;41.68;99670.31;5055469;28;46173;-78
2023/09/21 00:02:46;;;;;;;;;2.00;2.00;;;;;28.21;41.58;99672.69;5058337;28;45319;-79
2023/09/21 00:05:12;;;;;;;;;2.00;2.00;;;;;28.17;41.53;99664.38;5057698;28;45292;-79
2023/09/21 00:07:38;;;;;;;;;1.00;1.00;;;;;28.26;41.58;99678.09;5058106;28;45297;-79
2023/09/21 00:10:06;;;;;;;;;3.00;3.00;;;;;28.26;41.12;99672.75;5058100;28;46277;-79
2023/09/21 00:12:32;;;;;;;;;0.33;0.33;;;;;28.17;41.51;99652.88;5058207;28;45425;-78
2023/09/21 00:14:58;;;;;;;;;2.00;2.00;;;;;28.23;41.43;99656.41;5058211;28;46191;-78
2023/09/21 00:17:24;;;;;;;;;2.00;2.00;;;;;27.93;41.62;99607.69;5058167;28;45477;-79
2023/09/21 00:19:50;;;;;;;;;2.33;1.00;;;;;28.25;41.23;99651.59;5057596;28;46908;-78
2023/09/21 00:22:15;;;;;;;;;2.00;2.00;;;;;28.22;41.34;99644.91;5057997;28;45637;-78
2023/09/21 00:24:41;;;;;;;;;3.00;3.00;;;;;27.91;41.79;99612.50;5057872;28;45397;-78
2023/09/21 00:27:06;;;;;;;;;1.00;1.00;;;;;27.26;41.35;99491.00;5058085;28;45571;-78
2023/09/21 00:29:32;;;;;;;;;1.67;1.00;;;;;28.04;41.51;99604.09;5057775;28;46120;-78
2023/09/21 00:31:58;;;;;;;;;2.00;2.00;;;;;28.09;42.09;99627.38;5057607;28;45320;-79
2023/09/21 00:34:24;;;;;;;;;3.33;2.00;;;;;28.16;41.56;99624.50;5057529;28;45296;-78
2023/09/21 00:36:50;;;;;;;;;1.00;1.00;;;;;28.21;41.63;99629.91;5057817;28;45281;-79
2023/09/21 00:39:17;;;;;;;;;1.67;1.00;;;;;28.02;41.18;99603.53;5057636;28;45359;-79
2023/09/21 00:41:42;;;;;;;;;2.00;2.00;;;;;27.84;41.87;99562.69;5073240;28;45291;-79
2023/09/21 00:44:09;;;;;;;;;1.00;1.00;;;;;28.24;41.56;99618.72;5057572;28;45225;-78
2023/09/21 00:46:36;;;;;;;;;1.00;1.00;;;;;28.26;41.50;99621.16;5056518;28;45508;-78
2023/09/21 00:49:04;;;;;;;;;1.33;1.33;;;;;28.26;41.68;99611.22;5056953;28;46216;-79
2023/09/21 00:51:32;;;;;;;;;1.67;1.67;;;;;28.12;41.70;99588.66;5057533;28;45915;-78
2023/09/21 00:54:07;;;;;;;;;2.00;2.00;;;;;28.26;41.26;99610.44;5057577;28;45364;-78
2023/09/21 00:56:34;;;;;;;;;1.00;1.00;;;;;28.18;41.20;99601.00;5057394;28;45240;-78
2023/09/21 00:59:00;;;;;;;;;1.00;1.00;;;;;28.24;41.33;99601.84;5057276;28;46443;-78
2023/09/21 01:01:28;;;;;;;;;1.67;1.67;;;;;28.27;41.75;99606.69;5056941;28;45309;-78
2023/09/21 01:03:55;;;;;;;;;1.67;1.67;;;;;28.27;41.41;99598.69;5057172;28;45442;-78
2023/09/21 01:06:21;;;;;;;;;1.00;1.00;;;;;28.26;41.47;99591.72;5057169;28;45459;-79
2023/09/21 01:08:46;;;;;;;;;2.00;2.00;;;;;28.14;41.82;99578.50;5056922;28;45430;-78
2023/09/21 01:11:14;;;;;;;;;3.00;2.00;;;;;28.25;41.47;99587.44;5057042;28;45376;-78
2023/09/21 01:13:41;;;;;;;;;2.33;2.00;;;;;28.25;41.57;99582.91;5056646;28;45253;-78
2023/09/21 01:16:11;;;;;;;;;2.00;2.00;;;;;28.25;41.69;99572.19;5056835;28;45396;-79
2023/09/21 01:18:37;;;;;;;;;1.00;1.00;;;;;28.25;41.42;99576.72;5055670;28;47123;-78
2023/09/21 01:21:06;;;;;;;;;2.00;2.00;;;;;28.18;41.52;99561.69;5056985;28;45379;-78
2023/09/21 01:23:42;;;;;;;;;2.00;2.00;;;;;28.25;41.60;99571.38;5057033;28;45635;-79
2023/09/21 01:26:08;;;;;;;;;2.00;1.33;;;;;28.11;41.66;99560.28;5056900;28;45567;-79
2023/09/21 01:28:33;;;;;;;;;2.00;2.00;;;;;27.61;41.91;99489.75;5056696;28;45613;-78
2023/09/21 01:31:00;;;;;;;;;2.00;1.00;;;;;27.96;41.84;99535.84;5056424;28;45486;-78
2023/09/21 01:33:27;;;;;;;;;1.00;1.00;;;;;27.89;42.13;99523.75;5056850;28;45539;-78
2023/09/21 01:35:52;;;;;;;;;0.33;0.33;;;;;28.14;41.55;99567.81;5056874;28;45396;-79
2023/09/21 01:38:19;;;;;;;;;2.00;2.00;;;;;28.04;41.79;99568.53;5056563;28;47183;-79
2023/09/21 01:40:46;;;;;;;;;1.67;1.67;;;;;27.96;41.98;99575.13;5056777;28;45316;-78
2023/09/21 01:43:16;;;;;;;;;2.33;1.00;;;;;28.15;42.09;99564.91;5056899;28;45443;-78
2023/09/21 01:45:42;;;;;;;;;1.00;1.00;;;;;27.94;41.79;99497.06;5056481;28;45363;-78
2023/09/21 01:48:09;;;;;;;;;1.67;1.67;;;;;27.96;42.02;99527.81;5056271;28;46087;-79
2023/09/21 01:50:47;;;;;;;;;1.67;1.67;;;;;28.21;41.99;99599.69;5056938;28;45364;-79
2023/09/21 01:53:14;;;;;;;;;1.67;1.67;;;;;28.25;41.83;99598.94;5056739;28;45497;-78
2023/09/21 01:55:40;;;;;;;;;2.00;1.00;;;;;28.17;41.87;99604.75;5056432;28;45348;-78
2023/09/21 01:58:09;;;;;;;;;2.00;2.00;;;;;28.25;41.80;99595.44;5056369;28;45529;-78
2023/09/21 02:00:39;;;;;;;;;1.00;1.00;;;;;28.25;41.61;99595.44;5056150;28;45222;-78
2023/09/21 02:03:09;;;;;;;;;1.00;1.00;;;;;28.19;41.37;99586.56;5054930;28;45492;-78
2023/09/21 02:05:35;;;;;;;;;1.00;1.00;;;;;28.23;41.37;99586.88;5056360;28;45289;-78
2023/09/21 02:08:01;;;;;;;;;1.00;1.00;;;;;27.94;42.11;99558.53;5055987;28;46222;-78
2023/09/21 02:10:27;;;;;;;;;3.00;1.33;;;;;28.25;41.75;99595.44;5056184;28;45352;-78
2023/09/21 02:12:58;;;;;;;;;1.00;1.00;;;;;28.24;41.86;99586.63;5055310;28;45408;-78
2023/09/21 02:15:24;;;;;;;;;2.00;2.00;;;;;28.25;41.49;99587.44;5056072;28;45383;-78
2023/09/21 02:17:51;;;;;;;;;1.00;1.00;;;;;28.15;41.59;99567.56;5056095;28;45573;-78
2023/09/21 02:20:17;;;;;;;;;0.00;0.00;;;;;28.11;41.96;99553.06;5056144;28;45348;-78
2023/09/21 02:22:48;;;;;;;;;1.67;1.67;;;;;28.23;41.49;99552.94;5055931;28;45461;-79
2023/09/21 02:25:13;;;;;;;;;1.00;1.00;;;;;28.22;41.64;99558.50;5056214;28;45453;-78
2023/09/21 02:27:40;;;;;;;;;2.00;2.00;;;;;28.22;41.59;99559.31;5055778;28;46199;-79
2023/09/21 02:30:16;;;;;;;;;1.67;1.33;;;;;28.12;41.48;99556.56;5055613;28;45332;-79
2023/09/21 02:32:49;;;;;;;;;1.00;1.00;;;;;27.82;41.70;99516.72;5055826;28;45371;-78
2023/09/21 02:35:16;;;;;;;;;3.33;1.67;;;;;28.20;42.03;99576.69;5056048;28;45240;-79
2023/09/21 02:37:52;;;;;;;;;2.00;1.00;;;;;28.21;41.38;99576.41;5055735;28;45857;-79
2023/09/21 02:40:22;;;;;;;;;1.00;0.67;;;;;28.18;42.04;99575.06;5055747;28;45516;-79
2023/09/21 02:42:53;;;;;;;;;1.33;1.33;;;;;28.22;41.79;99579.91;5055794;28;45291;-78
2023/09/21 02:45:20;;;;;;;;;1.00;1.00;;;;;28.20;41.75;99577.50;5055803;28;45324;-77
2023/09/21 02:47:46;;;;;;;;;1.00;1.00;;;;;27.88;41.89;99519.44;5055571;28;46997;-78
2023/09/21 02:50:14;;;;;;;;;1.00;1.00;;;;;28.12;42.35;99553.88;5055709;28;45535;-78
2023/09/21 02:52:56;;;;;;;;;0.00;0.00;;;;;28.15;41.70;99570.25;5055811;28;45355;-79
2023/09/21 02:55:26;;;;;;;;;1.33;0.33;;;;;28.15;41.77;99553.38;5055722;28;45363;-79
2023/09/21 02:57:55;;;;;;;;;1.00;1.00;;;;;28.21;41.66;99568.41;5055173;28;46825;-79
2023/09/21 03:00:34;;;;;;;;;1.00;1.00;;;;;28.17;41.54;99553.94;5055519;28;45387;-78
2023/09/21 03:03:01;;;;;;;;;2.00;1.00;;;;;28.22;42.17;99570.03;5055461;28;45371;-78
2023/09/21 03:05:27;;;;;;;;;1.00;1.00;;;;;28.23;42.02;99565.50;5055562;28;45327;-79
2023/09/21 03:07:54;;;;;;;;;1.00;1.00;;;;;28.23;41.94;99558.28;5055246;28;45360;-77
2023/09/21 03:10:21;;;;;;;;;3.33;1.00;;;;;28.23;41.95;99565.50;5055398;28;45429;-79
2023/09/21 03:12:51;;;;;;;;;1.00;1.00;;;;;28.20;41.89;99564.13;5053948;28;45390;-78
2023/09/21 03:15:19;;;;;;;;;3.00;1.00;;;;;28.21;41.25;99562.25;5055468;28;45601;-78
2023/09/21 03:17:46;;;;;;;;;1.00;1.00;;;;;28.23;41.94;99555.59;5054071;28;48367;-78
2023/09/21 03:20:25;;;;;;;;;1.00;1.00;;;;;28.23;41.99;99557.47;5055048;28;45494;-78
2023/09/21 03:22:53;;;;;;;;;1.00;1.00;;;;;28.23;42.16;99549.44;5055390;28;45370;-79
2023/09/21 03:25:25;;;;;;;;;1.00;1.00;;;;;28.10;42.15;99519.41;5055300;28;45449;-79
2023/09/21 03:27:51;;;;;;;;;1.00;1.00;;;;;27.98;41.65;99497.34;5054724;27;46685;-78
2023/09/21 03:30:17;;;;;;;;;3.00;0.00;;;;;28.21;41.65;99532.84;5055044;28;45439;-79
2023/09/21 03:32:43;;;;;;;;;1.00;1.00;;;;;27.99;41.85;99490.94;5055247;28;45360;-79
2023/09/21 03:35:11;;;;;;;;;1.00;1.00;;;;;28.20;41.95;99534.72;5055873;28;45411;-79
2023/09/21 03:37:38;;;;;;;;;1.00;1.00;;;;;28.19;41.71;99533.09;5058649;28;46139;-78
2023/09/21 03:40:06;;;;;;;;;1.00;1.00;;;;;28.06;42.26;99499.56;5058680;28;45318;-78
2023/09/21 03:42:32;;;;;;;;;1.00;1.00;;;;;27.90;41.97;99478.03;5058295;28;45399;-79
2023/09/21 03:44:58;;;;;;;;;1.67;1.33;;;;;28.19;41.80;99495.66;5058502;28;45314;-79
2023/09/21 03:47:23;;;;;;;;;1.00;1.00;;;;;28.06;42.14;99478.16;5058272;28;47091;-78
2023/09/21 03:49:49;;;;;;;;;1.00;1.00;;;;;28.03;41.65;99473.31;5058653;28;45463;-79
2023/09/21 03:52:16;;;;;;;;;1.00;1.00;;;;;28.10;41.92;99481.16;5058566;28;45393;-78
2023/09/21 03:54:47;;;;;;;;;1.00;1.00;;;;;28.18;41.79;99499.41;5058588;28;46037;-79
2023/09/21 03:57:16;;;;;;;;;0.33;0.33;;;;;28.17;42.37;99479.06;5057846;28;46967;-79
2023/09/21 03:59:41;;;;;;;;;1.00;1.00;;;;;28.11;41.90;99461.34;5058332;28;45387;-79
2023/09/21 04:02:09;;;;;;;;;1.00;1.00;;;;;28.18;41.55;99476.13;5058299;28;45335;-79
2023/09/21 04:04:36;;;;;;;;;0.67;0.67;;;;;28.06;42.24;99459.47;5058357;28;45224;-79
2023/09/21 04:07:02;;;;;;;;;0.00;0.00;;;;;28.18;41.65;99478.00;5058030;28;47514;-79
2023/09/21 04:09:27;;;;;;;;;2.67;2.67;;;;;28.20;41.63;99475.88;5058221;28;45469;-78
2023/09/21 04:11:52;;;;;;;;;2.00;2.00;;;;;28.04;41.31;99434.84;5058010;28;45857;-79
2023/09/21 04:14:18;;;;;;;;;0.00;0.00;;;;;28.12;41.59;99433.56;5056840;28;45415;-78
2023/09/21 04:16:43;;;;;;;;;0.33;0.33;;;;;28.18;42.21;99445.94;5056858;28;46672;-79
2023/09/21 04:19:10;;;;;;;;;0.00;0.00;;;;;28.21;41.46;99429.34;5058042;28;45388;-78
2023/09/21 04:21:38;;;;;;;;;1.33;1.33;;;;;28.12;41.59;99404.97;5058256;28;45360;-78
2023/09/21 04:24:05;;;;;;;;;1.00;1.00;;;;;28.17;41.40;99417.56;5058062;28;45393;-79
2023/09/21 04:26:31;;;;;;;;;0.33;0.33;;;;;28.14;41.40;99418.06;5057496;28;46217;-78
2023/09/21 04:28:56;;;;;;;;;0.33;0.00;;;;;28.15;42.25;99406.34;5057834;28;45366;-78
2023/09/21 04:31:21;;;;;;;;;1.00;1.00;;;;;28.11;41.64;99375.81;5057638;27;45345;-79
2023/09/21 04:33:47;;;;;;;;;1.00;1.00;;;;;28.19;41.80;99380.69;5058001;28;45616;-79
2023/09/21 04:36:13;;;;;;;;;1.00;1.00;;;;;28.00;41.42;99350.91;5057663;28;47000;-78
2023/09/21 04:38:38;;;;;;;;;0.33;0.33;;;;;28.00;41.55;99332.97;5057690;28;45454;-78
2023/09/21 04:41:04;;;;;;;;;0.00;0.00;;;;;28.07;41.91;99335.44;5057678;28;45425;-79
2023/09/21 04:43:32;;;;;;;;;1.00;1.00;;;;;28.17;41.97;99343.50;5057602;28;45383;-79
2023/09/21 04:46:03;;;;;;;;;1.00;1.00;;;;;28.12;41.82;99327.44;5057506;28;46177;-79
2023/09/21 04:48:30;;;;;;;;;0.00;0.00;;;;;28.03;41.97;99303.06;5057519;28;45414;-78
2023/09/21 04:50:55;;;;;;;;;1.00;1.00;;;;;28.03;41.55;99294.22;5057668;28;45406;-78
2023/09/21 04:53:20;;;;;;;;;0.67;0.67;;;;;27.63;41.99;99235.72;5057561;28;45467;-78
2023/09/21 04:55:46;;;;;;;;;0.00;0.00;;;;;27.73;41.26;99238.47;5055782;28;46026;-79
2023/09/21 04:58:11;;;;;;;;;1.00;1.00;;;;;28.03;41.63;99283.53;5057458;28;45589;-79
2023/09/21 05:00:37;;;;;;;;;0.00;0.00;;;;;28.15;42.16;99318.09;5057730;28;45358;-79
2023/09/21 05:03:02;;;;;;;;;0.00;0.00;;;;;28.10;41.69;99348.28;5057323;28;45589;-78
2023/09/21 05:05:28;;;;;;;;;1.00;0.00;;;;;28.04;41.68;99354.66;5057272;28;46923;-78
2023/09/21 05:07:53;;;;;;;;;0.33;0.00;;;;;28.05;41.69;99383.78;5056965;28;45450;-77
2023/09/21 05:10:19;;;;;;;;;1.00;1.00;;;;;28.14;41.49;99340.53;5057312;28;45340;-78
2023/09/21 05:12:48;;;;;;;;;0.00;0.00;;;;;27.85;42.01;99344.38;5057446;28;45395;-78
2023/09/21 05:15:15;;;;;;;;;0.33;0.33;;;;;27.96;41.56;99327.34;5057062;28;46244;-78
2023/09/21 05:17:41;;;;;;;;;0.33;0.33;;;;;28.16;41.52;99354.44;5057021;28;45384;-78
2023/09/21 05:20:09;;;;;;;;;0.00;0.00;;;;;28.01;41.57;99353.31;5057152;28;45277;-78
2023/09/21 05:22:35;;;;;;;;;0.00;0.00;;;;;27.92;41.67;99349.50;5056891;28;45233;-78
2023/09/21 05:25:02;;;;;;;;;0.00;0.00;;;;;28.16;41.49;99400.72;5056883;28;46164;-78
2023/09/21 05:27:31;;;;;;;;;0.00;0.00;;;;;28.17;42.01;99426.41;5056874;28;45359;-78
2023/09/21 05:29:57;;;;;;;;;0.00;0.00;;;;;28.14;41.80;99416.22;5056976;28;45426;-79
2023/09/21 05:32:23;;;;;;;;;1.00;1.00;;;;;27.32;41.95;99275.56;5056636;28;45441;-78
2023/09/21 05:34:49;;;;;;;;;1.00;1.00;;;;;28.04;41.34;99379.53;5056575;28;46184;-79
2023/09/21 05:37:14;;;;;;;;;1.00;1.00;;;;;27.91;41.59;99374.63;5056473;28;45385;-78
2023/09/21 05:39:40;;;;;;;;;4.00;0.00;;;;;28.12;41.94;99402.31;5056937;28;45299;-78
2023/09/21 05:42:05;;;;;;;;;0.00;0.00;;;;;27.82;41.54;99367.06;5056700;28;45336;-79
2023/09/21 05:44:31;;;;;;;;;0.00;0.00;;;;;28.13;41.56;99398.56;5056558;28;47137;-79
2023/09/21 05:46:56;;;;;;;;;1.00;1.00;;;;;28.05;41.82;99402.50;5072403;28;45571;-79
2023/09/21 05:49:27;;;;;;;;;0.33;0.33;;;;;27.24;41.78;99287.53;5056540;28;45412;-77
2023/09/21 05:51:53;;;;;;;;;0.00;0.00;;;;;28.00;41.39;99410.50;5056313;28;45514;-78
2023/09/21 05:54:23;;;;;;;;;2.00;1.00;;;;;28.04;41.65;99405.44;5056181;28;46366;-79
2023/09/21 05:56:55;;;;;;;;;0.00;0.00;;;;;28.15;41.48;99431.22;5056444;28;45439;-77
2023/09/21 05:59:22;;;;;;;;;0.00;0.00;;;;;28.07;41.96;99453.06;5043832;28;45336;-77
2023/09/21 06:01:48;;;;;;;;;0.00;0.00;;;;;28.09;41.86;99442.91;5036190;28;45292;-77
2023/09/21 06:04:16;;;;;;;;;0.00;0.00;;;;;28.09;41.80;99472.31;5035794;28;47298;-79
2023/09/21 06:06:42;;;;;;;;;0.00;0.00;;;;;27.96;41.52;99474.38;5043278;28;45257;-78
2023/09/21 06:09:10;;;;;;;;;1.00;0.00;;;;;28.10;42.19;99494.53;5045814;28;45611;-77
2023/09/21 06:11:35;;;;;;;;;1.00;1.00;;;;;28.07;42.16;99479.78;5037975;28;45457;-84
2023/09/21 06:14:02;;;;;;;;;0.00;0.00;;;;;28.03;41.97;99489.38;5039455;28;46124;-77
2023/09/21 06:16:29;;;;;;;;;0.33;0.33;;;;;28.06;42.09;99495.03;5046821;28;45426;-76
2023/09/21 06:18:55;;;;;;;;;2.00;0.67;;;;;28.16;41.70;99521.03;5044782;28;45409;-79
2023/09/21 06:21:20;;;;;;;;;2.00;1.00;;;;;28.02;42.02;99498.47;5044838;28;45529;-79
2023/09/21 06:23:45;;;;;;;;;0.33;0.33;;;;;28.17;42.44;99530.69;5036935;28;46979;-82
2023/09/21 06:26:14;;;;;;;;;1.00;1.00;;;;;28.10;41.90;99534.63;5034783;28;45390;-81
2023/09/21 06:28:43;;;;;;;;;1.33;0.00;;;;;28.16;42.39;99530.91;5044986;28;45341;-79
2023/09/21 06:31:09;;;;;;;;;1.00;1.00;;;;;28.14;42.55;99543.75;5056012;28;45493;-79
2023/09/21 06:33:34;;;;;;;;;0.67;0.67;;;;;28.22;42.27;99566.53;5055583;28;46968;-77
2023/09/21 06:35:59;;;;;;;;;0.67;0.67;;;;;28.22;42.54;99570.03;5054368;28;45460;-75
2023/09/21 06:38:25;;;;;;;;;2.33;1.00;;;;;28.23;42.05;99539.56;5054897;28;45423;-75
2023/09/21 06:40:51;;;;;;;;;0.33;0.33;;;;;28.25;42.75;99558.00;5054808;28;45202;-74
2023/09/21 06:43:16;;;;;;;;;0.00;0.00;;;;;28.26;42.30;99571.13;5054495;28;46411;-74
2023/09/21 06:45:42;;;;;;;;;0.00;0.00;;;;;28.23;42.68;99562.81;5055570;28;45380;-78
2023/09/21 06:48:10;;;;;;;;;0.00;0.00;;;;;28.28;42.52;99549.50;5055465;28;45268;-77
2023/09/21 06:50:39;;;;;;;;;2.33;0.00;;;;;28.28;42.67;99520.88;5055385;28;45384;-77
2023/09/21 06:53:05;;;;;;;;;1.00;1.00;;;;;28.29;42.31;99505.63;5055660;28;47158;-77
2023/09/21 06:55:30;;;;;;;;;2.00;0.67;;;;;27.67;42.42;99407.81;5055579;28;45493;-76
2023/09/21 06:57:56;;;;;;;;;2.67;1.33;;;;;28.28;42.59;99506.69;5055784;28;45768;-77
2023/09/21 07:00:21;;;;;;;;;0.33;0.33;;;;;28.28;42.72;99526.22;5055779;28;45516;-76
2023/09/21 07:02:47;;;;;;;;;0.00;0.00;;;;;28.23;42.40;99510.16;5055425;28;46277;-76
2023/09/21 07:05:12;;;;;;;;;1.00;1.00;;;;;28.19;42.06;99517.03;5053684;28;45295;-77
2023/09/21 07:07:38;;;;;;;;;1.33;1.00;;;;;28.29;42.46;99535.03;5054237;28;45518;-77
2023/09/21 07:10:05;;;;;;;;;0.67;0.00;;;;;28.27;42.63;99535.31;5054930;28;45439;-77
2023/09/21 07:12:31;;;;;;;;;2.00;1.00;;;;;28.24;42.00;99530.47;5058199;28;45916;-77
2023/09/21 07:14:58;;;;;;;;;1.00;1.00;;;;;27.99;42.32;99525.69;5057870;28;45454;-77
2023/09/21 07:17:24;;;;;;;;;0.00;0.00;;;;;28.04;42.52;99534.56;5058351;28;45349;-77
2023/09/21 07:19:50;;;;;;;;;0.00;0.00;;;;;28.12;42.13;99559.22;5057903;28;45477;-77
2023/09/21 07:22:16;;;;;;;;;0.00;0.00;;;;;28.07;42.32;99558.13;5057967;28;46237;-77
2023/09/21 07:24:41;;;;;;;;;1.67;0.33;;;;;28.22;42.17;99582.56;5057958;28;45331;-78
2023/09/21 07:27:07;;;;;;;;;0.00;0.00;;;;;28.23;42.15;99585.03;5058011;28;45367;-77
2023/09/21 07:29:33;;;;;;;;;1.00;1.00;;;;;28.10;42.36;99570.19;5058025;28;45304;-78
2023/09/21 07:31:59;;;;;;;;;2.00;0.00;;;;;28.23;41.96;99593.03;5057722;28;46959;-77
2023/09/21 07:34:24;;;;;;;;;1.00;0.00;;;;;28.14;42.51;99581.97;5057335;28;45364;-77
2023/09/21 07:36:50;;;;;;;;;0.00;0.00;;;;;28.20;42.14;99587.38;5058046;28;45227;-77
2023/09/21 07:39:16;;;;;;;;;0.33;0.33;;;;;28.06;42.44;99575.22;5057925;28;45521;-77
2023/09/21 07:41:42;;;;;;;;;1.00;1.00;;;;;28.23;42.26;99592.22;5057573;28;45517;-78
2023/09/21 07:44:08;;;;;;;;;0.00;0.00;;;;;28.23;42.27;99579.66;5057612;28;45416;-78
2023/09/21 07:46:36;;;;;;;;;0.00;0.00;;;;;28.24;42.00;99569.75;5057815;28;45357;-77
2023/09/21 07:49:02;;;;;;;;;0.00;0.00;;;;;28.18;42.38;99567.03;5055919;28;45363;-77
2023/09/21 07:51:28;;;;;;;;;1.00;1.00;;;;;28.11;42.58;99568.31;5057409;28;46317;-78
2023/09/21 07:53:53;;;;;;;;;0.33;0.00;;;;;28.12;42.06;99551.22;5057263;28;45434;-77
2023/09/21 07:56:19;;;;;;;;;1.67;0.33;;;;;28.22;42.56;99529.09;5057463;28;45377;-77
2023/09/21 07:58:45;;;;;;;;;0.33;0.33;;;;;28.11;41.92;99486.22;5057648;28;45338;-76
2023/09/21 08:01:10;;;;;;;;;2.00;1.00;;;;;28.21;42.57;99490.84;5057212;28;45991;-78
2023/09/21 08:03:36;;;;;;;;;0.00;0.00;;;;;28.17;42.18;99525.34;5015740;28;1172482;-77
2023/09/21 08:06:01;;;;;;;;;1.67;1.00;;;;;28.10;41.67;99548.81;5058465;28;45496;-78
2023/09/21 08:08:26;;;;;;;;;1.00;1.00;;;;;28.10;42.26;99559.50;5058280;28;45441;-77
2023/09/21 08:10:53;;;;;;;;;2.00;0.67;;;;;28.22;41.97;99563.88;5058244;28;45593;-77
2023/09/21 08:13:24;;;;;;;;;2.00;0.67;;;;;28.22;42.16;99562.00;5058153;28;45250;-77
2023/09/21 08:15:50;;;;;;;;;0.67;0.67;;;;;28.21;42.56;99543.56;5058557;28;45282;-77
2023/09/21 08:18:15;;;;;;;;;1.00;1.00;;;;;28.14;42.44;99527.69;5057837;28;45542;-77
2023/09/21 08:20:41;;;;;;;;;0.00;0.00;;;;;28.18;42.08;99537.63;5057648;28;46258;-77
2023/09/21 08:23:07;;;;;;;;;3.67;1.00;;;;;28.20;42.18;99571.34;5058122;28;45355;-78
2023/09/21 08:25:35;;;;;;;;;1.00;1.00;;;;;28.20;42.42;99582.03;5058203;28;45410;-78
2023/09/21 08:28:00;;;;;;;;;1.00;0.00;;;;;28.10;41.92;99561.34;5057975;28;45402;-78
2023/09/21 08:30:26;;;;;;;;;1.33;0.00;;;;;28.15;42.35;99569.44;5057749;28;46280;-78
2023/09/21 08:32:51;;;;;;;;;0.00;0.00;;;;;28.14;42.66;99565.94;5057262;28;45406;-77
2023/09/21 08:35:17;;;;;;;;;0.00;0.00;;;;;28.17;42.16;99567.31;5058071;28;45412;-77
2023/09/21 08:37:43;;;;;;;;;0.00;0.00;;;;;28.15;42.55;99540.03;5057930;28;45492;-77
2023/09/21 08:40:09;;;;;;;;;0.00;0.00;;;;;28.18;42.01;99526.16;5057732;28;46374;-77
2023/09/21 08:42:36;;;;;;;;;0.00;0.00;;;;;28.15;42.49;99516.75;5056300;28;45376;-77
2023/09/21 08:45:09;;;;;;;;;3.00;0.00;;;;;28.17;42.59;99509.28;5057655;28;45312;-77
2023/09/21 08:47:37;;;;;;;;;0.00;0.00;;;;;28.02;42.12;99503.81;5057346;28;45430;-77
2023/09/21 08:50:03;;;;;;;;;0.00;0.00;;;;;28.10;42.55;99524.75;5057264;28;45421;-77
2023/09/21 08:52:32;;;;;;;;;0.00;0.00;;;;;28.18;42.15;99551.00;5057490;28;45747;-77
2023/09/21 08:54:57;;;;;;;;;0.00;0.00;;;;;28.15;41.85;99540.03;5057672;28;45472;-77
2023/09/21 08:57:23;;;;;;;;;0.67;0.00;;;;;28.13;42.00;99548.28;5056380;28;45377;-76
2023/09/21 08:59:51;;;;;;;;;0.00;0.00;;;;;28.15;42.52;99556.88;5057566;28;47192;-77
2023/09/21 09:02:17;;;;;;;;;0.67;0.33;;;;;27.75;42.08;99492.03;5057166;28;45297;-77
2023/09/21 09:04:42;;;;;;;;;0.33;0.33;;;;;28.15;41.84;99551.53;5057193;28;45383;-77
2023/09/21 09:07:08;;;;;;;;;0.00;0.00;;;;;28.15;41.49;99551.53;5057456;28;45502;-78
2023/09/21 09:09:34;;;;;;;;;1.00;1.00;;;;;28.19;41.64;99543.78;5057238;28;46326;-76
2023/09/21 09:12:00;;;;;;;;;0.00;0.00;;;;;28.15;42.13;99542.69;5057294;28;45367;-76
2023/09/21 09:14:25;;;;;;;;;0.00;0.00;;;;;28.19;41.95;99546.47;5056848;28;45416;-76
2023/09/21 09:16:51;;;;;;;;;0.00;0.00;;;;;28.20;42.09;99555.28;5057426;28;45353;-76
2023/09/21 09:19:16;;;;;;;;;0.00;0.00;;;;;28.18;42.43;99556.34;5057061;28;46397;-77
2023/09/21 09:21:44;;;;;;;;;1.00;0.00;;;;;28.17;41.75;99560.09;5057123;28;45469;-77
2023/09/21 09:24:11;;;;;;;;;1.00;1.00;;;;;28.13;42.05;99563.53;5057247;28;45351;-77
2023/09/21 09:26:38;;;;;;;;;1.00;0.33;;;;;28.18;42.08;99560.91;5057076;28;45325;-77
2023/09/21 09:29:09;;;;;;;;;2.00;0.00;;;;;28.16;42.07;99545.09;5056576;28;46567;-77
2023/09/21 09:31:35;;;;;;;;;0.00;0.00;;;;;28.17;41.81;99552.06;5056736;28;45371;-77
2023/09/21 09:34:04;;;;;;;;;0.00;0.00;;;;;28.14;41.63;99559.78;5056156;28;45430;-77
2023/09/21 09:36:30;;;;;;;;;1.00;1.00;;;;;28.17;41.86;99562.78;5056994;28;45351;-77
2023/09/21 09:38:56;;;;;;;;;1.00;1.00;;;;;28.15;41.78;99558.72;5056739;28;46450;-77
2023/09/21 09:41:23;;;;;;;;;0.00;0.00;;;;;28.04;42.43;99547.13;5056680;28;45279;-77
2023/09/21 09:43:52;;;;;;;;;1.00;1.00;;;;;28.18;42.15;99575.06;5056496;28;45491;-75
2023/09/21 09:46:22;;;;;;;;;0.67;0.00;;;;;28.10;42.07;99553.34;5055361;28;45423;-77
2023/09/21 09:48:50;;;;;;;;;1.00;1.00;;;;;28.15;41.70;99553.38;5056549;28;46173;-76
2023/09/21 09:51:23;;;;;;;;;1.00;1.00;;;;;28.12;41.76;99556.56;5056824;28;45400;-77
2023/09/21 09:53:52;;;;;;;;;0.33;0.33;;;;;28.18;42.13;99572.38;5056735;28;45280;-77
2023/09/21 09:56:19;;;;;;;;;1.33;0.00;;;;;27.49;41.56;99473.06;5056571;28;45419;-77
2023/09/21 09:58:44;;;;;;;;;0.00;0.00;;;;;28.17;42.31;99576.13;5056097;28;45383;-77
2023/09/21 10:01:12;;;;;;;;;1.00;1.00;;;;;28.16;41.99;99571.03;5056522;28;45405;-77
2023/09/21 10:03:43;;;;;;;;;1.00;1.00;;;;;28.18;42.25;99571.59;5056662;28;45486;-77
2023/09/21 10:06:09;;;;;;;;;2.00;1.00;;;;;28.18;42.28;99571.59;5056541;28;45400;-77
2023/09/21 10:08:39;;;;;;;;;0.00;0.00;;;;;28.14;42.17;99568.63;5056363;28;46099;-76
2023/09/21 10:11:09;;;;;;;;;0.00;0.00;;;;;28.17;41.69;99573.47;5056451;28;45355;-76
2023/09/21 10:13:36;;;;;;;;;0.00;0.00;;;;;28.07;41.82;99563.47;5056165;28;45398;-77
2023/09/21 10:16:04;;;;;;;;;2.00;0.00;;;;;27.98;42.33;99542.78;5056461;28;45378;-76
2023/09/21 10:18:37;;;;;;;;;2.00;2.00;;;;;28.18;42.38;99576.94;5056145;28;46493;-77
2023/09/21 10:21:31;;;;;;;;;0.33;0.33;;;;;28.17;41.97;99580.66;5056267;28;45272;-77
2023/09/21 10:23:59;;;;;;;;;1.67;1.33;;;;;28.16;41.98;99582.53;5056211;28;45355;-76
2023/09/21 10:26:26;;;;;;;;;0.33;0.33;;;;;28.16;42.30;99592.41;5056395;28;45361;-77
2023/09/21 10:28:53;;;;;;;;;1.00;1.00;;;;;28.15;42.25;99593.50;5054222;28;46003;-76
2023/09/21 10:31:27;;;;;;;;;1.67;1.00;;;;;28.13;42.46;99584.91;5055893;28;45347;-77
2023/09/21 10:33:52;;;;;;;;;2.00;1.00;;;;;28.15;42.32;99588.16;5056017;28;45335;-77
2023/09/21 10:36:21;;;;;;;;;0.67;0.67;;;;;28.12;42.03;99581.44;5054797;28;45335;-77
2023/09/21 10:39:17;;;;;;;;;1.33;1.33;;;;;28.07;42.21;99566.16;5056002;28;45486;-77
2023/09/21 10:41:45;;;;;;;;;1.00;0.00;;;;;27.93;41.86;99557.72;5055477;28;45384;-77
2023/09/21 10:44:12;;;;;;;;;1.00;1.00;;;;;28.15;41.77;99599.66;5055676;28;45422;-77
2023/09/21 10:46:38;;;;;;;;;1.00;1.00;;;;;28.13;42.43;99588.38;5055793;28;45262;-76
2023/09/21 10:49:03;;;;;;;;;1.33;0.33;;;;;28.13;42.12;99591.06;5055601;28;45563;-77
2023/09/21 10:51:39;;;;;;;;;0.33;0.33;;;;;28.12;41.72;99589.47;5055684;28;45363;-77
2023/09/21 10:54:10;;;;;;;;;1.00;1.00;;;;;28.13;41.84;99584.91;5055918;28;45307;-77
2023/09/21 10:56:37;;;;;;;;;1.00;1.00;;;;;28.05;42.22;99567.47;5055408;28;45610;-78
2023/09/21 10:59:03;;;;;;;;;1.00;1.00;;;;;28.03;42.23;99554.34;5055507;28;46550;-77
2023/09/21 11:01:29;;;;;;;;;2.00;1.00;;;;;28.06;41.93;99553.03;5055493;28;46004;-77
2023/09/21 11:03:55;;;;;;;;;1.00;1.00;;;;;28.04;42.05;99553.28;5055589;28;45493;-77
2023/09/21 11:06:21;;;;;;;;;1.00;1.00;;;;;28.16;41.87;99549.63;5055631;28;45423;-77
2023/09/21 11:08:49;;;;;;;;;1.00;1.00;;;;;28.09;41.92;99544.50;5055484;28;45451;-77
2023/09/21 11:11:16;;;;;;;;;1.00;0.33;;;;;28.17;42.12;99584.16;5055195;28;45237;-77
2023/09/21 11:13:42;;;;;;;;;0.00;0.00;;;;;28.12;41.97;99561.91;5055537;28;45387;-76
2023/09/21 11:16:14;;;;;;;;;0.00;0.00;;;;;28.17;42.04;99576.13;5055554;28;45374;-77
2023/09/21 11:18:40;;;;;;;;;0.00;0.00;;;;;27.52;41.38;99472.59;5055415;28;46186;-77
2023/09/21 11:21:08;;;;;;;;;2.33;1.00;;;;;28.17;41.80;99562.78;5055493;28;45298;-77
2023/09/21 11:23:34;;;;;;;;;1.00;1.00;;;;;28.00;41.51;99544.16;5055462;28;45330;-77
2023/09/21 11:26:00;;;;;;;;;1.00;0.67;;;;;27.33;42.10;99421.34;5054865;28;45374;-77
2023/09/21 11:28:32;;;;;;;;;1.00;1.00;;;;;28.15;42.37;99551.53;5055211;28;46164;-77
2023/09/21 11:30:58;;;;;;;;;1.00;1.00;;;;;28.10;42.07;99553.34;5055232;28;45464;-78
2023/09/21 11:33:25;;;;;;;;;1.00;1.00;;;;;28.16;41.96;99565.69;5055167;28;45415;-77